N872WT KLAX-KSAN
Flight info
| Callsign | N872WT |
|---|---|
| Flight time | 0h 49m |
| Altitude | 5000 |
| Route | SLI8 SLI V64 V363 DANAH V23 MZB |
| Aircraft | C182/L-VGD/C |
Departure
| Time | 2026-04-25 19:12 |
|---|---|
| Airport | Los Angeles International Airport (KLAX) |
Arrival
| Time | 2026-04-25 20:01 |
|---|---|
| Airport | San Diego International Airport (KSAN) |
| Time | Latitude | Longitude | Altitude | Speed | Heading |
|---|---|---|---|---|---|
| 2026-04-25 18:48 | 33.93254 | -118.39789 | 121 ft | 0 kts | 164° |
| 2026-04-25 19:07 | 33.93259 | -118.39786 | 120 ft | 6 kts | 335° |
| 2026-04-25 19:07 | 33.93310 | -118.39812 | 119 ft | 10 kts | 351° |
| 2026-04-25 19:08 | 33.93418 | -118.39814 | 121 ft | 0 kts | 352° |
| 2026-04-25 19:09 | 33.93447 | -118.39812 | 121 ft | 10 kts | 26° |
| 2026-04-25 19:09 | 33.93463 | -118.39741 | 121 ft | 17 kts | 83° |
| 2026-04-25 19:09 | 33.93508 | -118.39301 | 118 ft | 27 kts | 80° |
| 2026-04-25 19:10 | 33.93524 | -118.39113 | 121 ft | 10 kts | 78° |
| 2026-04-25 19:10 | 33.93532 | -118.39073 | 121 ft | 0 kts | 87° |
| 2026-04-25 19:10 | 33.93567 | -118.39091 | 121 ft | 14 kts | 330° |
| 2026-04-25 19:11 | 33.93647 | -118.39173 | 119 ft | 8 kts | 263° |
| 2026-04-25 19:11 | 33.93617 | -118.39438 | 121 ft | 60 kts | 263° |
| 2026-04-25 19:11 | 33.93559 | -118.40075 | 269 ft | 88 kts | 257° |
| 2026-04-25 19:11 | 33.93481 | -118.40880 | 491 ft | 102 kts | 258° |
| 2026-04-25 19:12 | 33.93386 | -118.41756 | 727 ft | 110 kts | 255° |
| 2026-04-25 19:12 | 33.93247 | -118.42679 | 995 ft | 112 kts | 254° |
| 2026-04-25 19:12 | 33.93116 | -118.43602 | 1305 ft | 111 kts | 256° |
| 2026-04-25 19:12 | 33.92956 | -118.44491 | 1655 ft | 108 kts | 256° |
| 2026-04-25 19:13 | 33.92769 | -118.45381 | 1894 ft | 112 kts | 253° |
| 2026-04-25 19:13 | 33.92688 | -118.46334 | 2076 ft | 117 kts | 261° |
| 2026-04-25 19:13 | 33.92579 | -118.47324 | 2228 ft | 120 kts | 255° |
| 2026-04-25 19:13 | 33.92427 | -118.48292 | 2457 ft | 114 kts | 256° |
| 2026-04-25 19:14 | 33.92281 | -118.49239 | 2628 ft | 119 kts | 255° |
| 2026-04-25 19:14 | 33.92176 | -118.49551 | 2646 ft | 120 kts | 237° |
| 2026-04-25 19:14 | 33.90894 | -118.50165 | 2788 ft | 123 kts | 192° |
| 2026-04-25 19:14 | 33.90049 | -118.50389 | 2905 ft | 124 kts | 192° |
| 2026-04-25 19:15 | 33.89224 | -118.50617 | 3013 ft | 123 kts | 193° |
| 2026-04-25 19:15 | 33.88385 | -118.50853 | 3124 ft | 122 kts | 193° |
| 2026-04-25 19:15 | 33.87558 | -118.51088 | 3223 ft | 124 kts | 193° |
| 2026-04-25 19:15 | 33.86699 | -118.51332 | 3324 ft | 125 kts | 193° |
| 2026-04-25 19:16 | 33.85859 | -118.51374 | 3402 ft | 126 kts | 164° |
| 2026-04-25 19:16 | 33.85028 | -118.51009 | 3500 ft | 128 kts | 162° |
| 2026-04-25 19:16 | 33.84188 | -118.50652 | 3602 ft | 128 kts | 162° |
| 2026-04-25 19:16 | 33.83357 | -118.50286 | 3703 ft | 127 kts | 161° |
| 2026-04-25 19:17 | 33.82526 | -118.49926 | 3814 ft | 126 kts | 162° |
| 2026-04-25 19:17 | 33.81711 | -118.49557 | 3909 ft | 125 kts | 162° |
| 2026-04-25 19:17 | 33.80892 | -118.49192 | 4009 ft | 126 kts | 161° |
| 2026-04-25 19:17 | 33.80067 | -118.48833 | 4109 ft | 125 kts | 162° |
| 2026-04-25 19:18 | 33.79251 | -118.48463 | 4213 ft | 126 kts | 162° |
| 2026-04-25 19:18 | 33.78435 | -118.48095 | 4317 ft | 126 kts | 161° |
| 2026-04-25 19:18 | 33.77617 | -118.47729 | 4420 ft | 125 kts | 162° |
| 2026-04-25 19:18 | 33.76800 | -118.47350 | 4530 ft | 127 kts | 161° |
| 2026-04-25 19:19 | 33.75960 | -118.46975 | 4629 ft | 129 kts | 162° |
| 2026-04-25 19:19 | 33.75117 | -118.46605 | 4728 ft | 127 kts | 162° |
| 2026-04-25 19:19 | 33.74289 | -118.46219 | 4832 ft | 129 kts | 161° |
| 2026-04-25 19:19 | 33.73739 | -118.45945 | 4906 ft | 130 kts | 162° |
| 2026-04-25 19:20 | 33.72623 | -118.45393 | 5028 ft | 132 kts | 162° |
| 2026-04-25 19:20 | 33.71761 | -118.44977 | 5129 ft | 132 kts | 162° |
| 2026-04-25 19:20 | 33.70906 | -118.44561 | 5230 ft | 132 kts | 162° |
| 2026-04-25 19:20 | 33.70029 | -118.44364 | 5230 ft | 134 kts | 167° |
| 2026-04-25 19:21 | 33.69179 | -118.43753 | 4974 ft | 149 kts | 146° |
| 2026-04-25 19:21 | 33.67627 | -118.41707 | 4254 ft | 157 kts | 131° |
| 2026-04-25 19:21 | 33.66986 | -118.40636 | 4308 ft | 161 kts | 123° |
| 2026-04-25 19:22 | 33.66403 | -118.39494 | 4439 ft | 158 kts | 129° |
| 2026-04-25 19:22 | 33.65752 | -118.38431 | 4615 ft | 157 kts | 127° |
| 2026-04-25 19:22 | 33.64486 | -118.36323 | 4929 ft | 153 kts | 128° |
| 2026-04-25 19:23 | 33.63892 | -118.35277 | 5070 ft | 149 kts | 128° |
| 2026-04-25 19:23 | 33.62721 | -118.33211 | 5030 ft | 147 kts | 127° |
| 2026-04-25 19:23 | 33.62156 | -118.32218 | 5025 ft | 142 kts | 129° |
| 2026-04-25 19:24 | 33.61714 | -118.31160 | 5012 ft | 145 kts | 109° |
| 2026-04-25 19:24 | 33.61493 | -118.29984 | 5010 ft | 144 kts | 105° |
| 2026-04-25 19:24 | 33.60996 | -118.27640 | 5011 ft | 146 kts | 109° |
| 2026-04-25 19:25 | 33.60477 | -118.25280 | 5017 ft | 146 kts | 108° |
| 2026-04-25 19:25 | 33.60221 | -118.24119 | 5017 ft | 145 kts | 108° |
| 2026-04-25 19:25 | 33.59964 | -118.22956 | 5016 ft | 144 kts | 107° |
| 2026-04-25 19:26 | 33.59707 | -118.21793 | 5013 ft | 145 kts | 108° |
| 2026-04-25 19:26 | 33.59448 | -118.20622 | 5013 ft | 146 kts | 109° |
| 2026-04-25 19:26 | 33.59188 | -118.19447 | 5011 ft | 146 kts | 109° |
| 2026-04-25 19:26 | 33.58927 | -118.18268 | 5005 ft | 146 kts | 108° |
| 2026-04-25 19:27 | 33.58668 | -118.17095 | 5004 ft | 146 kts | 107° |
| 2026-04-25 19:27 | 33.58580 | -118.16697 | 5003 ft | 146 kts | 108° |
| 2026-04-25 19:27 | 33.58142 | -118.14724 | 5001 ft | 148 kts | 107° |
| 2026-04-25 19:27 | 33.57878 | -118.13533 | 5002 ft | 148 kts | 107° |
| 2026-04-25 19:28 | 33.57614 | -118.12341 | 5002 ft | 148 kts | 107° |
| 2026-04-25 19:28 | 33.57349 | -118.11147 | 5002 ft | 148 kts | 107° |
| 2026-04-25 19:28 | 33.57084 | -118.09956 | 5002 ft | 148 kts | 107° |
| 2026-04-25 19:28 | 33.56820 | -118.08765 | 5003 ft | 148 kts | 107° |
| 2026-04-25 19:29 | 33.56555 | -118.07573 | 5005 ft | 148 kts | 107° |
| 2026-04-25 19:29 | 33.56290 | -118.06377 | 5007 ft | 148 kts | 107° |
| 2026-04-25 19:29 | 33.56037 | -118.05212 | 5015 ft | 143 kts | 107° |
| 2026-04-25 19:29 | 33.55770 | -118.04053 | 5025 ft | 146 kts | 107° |
| 2026-04-25 19:30 | 33.55511 | -118.02863 | 5026 ft | 147 kts | 105° |
| 2026-04-25 19:30 | 33.55247 | -118.01671 | 5026 ft | 150 kts | 107° |
| 2026-04-25 19:30 | 33.54975 | -118.00458 | 5020 ft | 151 kts | 106° |
| 2026-04-25 19:30 | 33.54700 | -117.99241 | 5026 ft | 152 kts | 108° |
| 2026-04-25 19:31 | 33.54428 | -117.98024 | 5012 ft | 150 kts | 108° |
| 2026-04-25 19:31 | 33.54158 | -117.96822 | 5008 ft | 148 kts | 107° |
| 2026-04-25 19:31 | 33.53898 | -117.95647 | 5007 ft | 144 kts | 106° |
| 2026-04-25 19:31 | 33.53642 | -117.94503 | 5006 ft | 141 kts | 107° |
| 2026-04-25 19:32 | 33.53388 | -117.93369 | 5006 ft | 141 kts | 107° |
| 2026-04-25 19:32 | 33.53134 | -117.92235 | 5008 ft | 141 kts | 107° |
| 2026-04-25 19:32 | 33.52966 | -117.91485 | 5009 ft | 141 kts | 108° |
| 2026-04-25 19:32 | 33.52797 | -117.90731 | 5009 ft | 142 kts | 107° |
| 2026-04-25 19:33 | 33.52458 | -117.89217 | 5010 ft | 139 kts | 107° |
| 2026-04-25 19:33 | 33.52207 | -117.88098 | 5011 ft | 140 kts | 107° |
| 2026-04-25 19:33 | 33.51954 | -117.86966 | 5011 ft | 140 kts | 107° |
| 2026-04-25 19:33 | 33.51701 | -117.85838 | 5011 ft | 140 kts | 107° |
| 2026-04-25 19:34 | 33.51448 | -117.84708 | 5010 ft | 141 kts | 108° |
| 2026-04-25 19:34 | 33.51194 | -117.83578 | 5011 ft | 141 kts | 107° |
| 2026-04-25 19:34 | 33.50941 | -117.82446 | 5010 ft | 141 kts | 107° |
| 2026-04-25 19:34 | 33.50687 | -117.81313 | 5011 ft | 141 kts | 108° |
| 2026-04-25 19:35 | 33.50430 | -117.80179 | 5014 ft | 141 kts | 107° |
| 2026-04-25 19:35 | 33.50175 | -117.79046 | 5014 ft | 141 kts | 107° |
| 2026-04-25 19:35 | 33.49920 | -117.77911 | 5014 ft | 141 kts | 107° |
| 2026-04-25 19:35 | 33.49664 | -117.76775 | 5014 ft | 141 kts | 108° |
| 2026-04-25 19:36 | 33.49409 | -117.75642 | 5013 ft | 141 kts | 107° |
| 2026-04-25 19:36 | 33.49153 | -117.74508 | 5012 ft | 141 kts | 107° |
| 2026-04-25 19:36 | 33.48898 | -117.73375 | 5014 ft | 141 kts | 107° |
| 2026-04-25 19:36 | 33.48643 | -117.72248 | 5013 ft | 143 kts | 107° |
| 2026-04-25 19:37 | 33.48385 | -117.71101 | 5011 ft | 142 kts | 107° |
| 2026-04-25 19:37 | 33.48093 | -117.69974 | 5004 ft | 141 kts | 118° |
| 2026-04-25 19:37 | 33.47468 | -117.69095 | 5005 ft | 138 kts | 138° |
| 2026-04-25 19:37 | 33.46774 | -117.68288 | 5009 ft | 140 kts | 139° |
| 2026-04-25 19:38 | 33.46071 | -117.67463 | 5013 ft | 142 kts | 139° |
| 2026-04-25 19:38 | 33.45359 | -117.66629 | 5014 ft | 144 kts | 139° |
| 2026-04-25 19:38 | 33.44644 | -117.65790 | 5015 ft | 144 kts | 139° |
| 2026-04-25 19:38 | 33.43930 | -117.64955 | 5016 ft | 143 kts | 139° |
| 2026-04-25 19:39 | 33.43220 | -117.64124 | 5016 ft | 143 kts | 139° |
| 2026-04-25 19:39 | 33.42506 | -117.63289 | 5016 ft | 144 kts | 139° |
| 2026-04-25 19:39 | 33.41791 | -117.62452 | 5016 ft | 143 kts | 139° |
| 2026-04-25 19:39 | 33.41078 | -117.61618 | 5016 ft | 144 kts | 139° |
| 2026-04-25 19:40 | 33.40364 | -117.60783 | 5016 ft | 143 kts | 139° |
| 2026-04-25 19:40 | 33.39651 | -117.59949 | 5022 ft | 144 kts | 139° |
| 2026-04-25 19:40 | 33.38933 | -117.59111 | 5020 ft | 145 kts | 139° |
| 2026-04-25 19:40 | 33.38213 | -117.58269 | 5022 ft | 145 kts | 139° |
| 2026-04-25 19:41 | 33.37490 | -117.57425 | 5022 ft | 145 kts | 139° |
| 2026-04-25 19:41 | 33.36769 | -117.56583 | 5022 ft | 145 kts | 139° |
| 2026-04-25 19:41 | 33.36050 | -117.55743 | 5023 ft | 144 kts | 139° |
| 2026-04-25 19:41 | 33.35576 | -117.55189 | 5023 ft | 144 kts | 139° |
| 2026-04-25 19:42 | 33.34626 | -117.54082 | 5023 ft | 144 kts | 139° |
| 2026-04-25 19:42 | 33.33914 | -117.53250 | 5024 ft | 143 kts | 139° |
| 2026-04-25 19:42 | 33.33198 | -117.52415 | 5028 ft | 144 kts | 139° |
| 2026-04-25 19:42 | 33.32474 | -117.51572 | 5033 ft | 146 kts | 139° |
| 2026-04-25 19:43 | 33.31738 | -117.50714 | 5035 ft | 149 kts | 139° |
| 2026-04-25 19:43 | 33.30997 | -117.49848 | 5036 ft | 149 kts | 139° |
| 2026-04-25 19:43 | 33.30257 | -117.48985 | 5033 ft | 149 kts | 139° |
| 2026-04-25 19:43 | 33.29518 | -117.48125 | 5035 ft | 148 kts | 139° |
| 2026-04-25 19:44 | 33.28781 | -117.47265 | 5031 ft | 148 kts | 139° |
| 2026-04-25 19:44 | 33.28040 | -117.46403 | 5032 ft | 149 kts | 139° |
| 2026-04-25 19:44 | 33.27299 | -117.45540 | 5035 ft | 149 kts | 139° |
| 2026-04-25 19:44 | 33.26557 | -117.44676 | 5033 ft | 149 kts | 139° |
| 2026-04-25 19:45 | 33.25881 | -117.43881 | 5043 ft | 115 kts | 140° |
| 2026-04-25 19:45 | 33.25353 | -117.43267 | 5028 ft | 109 kts | 140° |
| 2026-04-25 19:45 | 33.24745 | -117.42568 | 5019 ft | 130 kts | 139° |
| 2026-04-25 19:45 | 33.24051 | -117.41811 | 5016 ft | 138 kts | 148° |
| 2026-04-25 19:46 | 33.23161 | -117.41390 | 5021 ft | 138 kts | 165° |
| 2026-04-25 19:46 | 33.22247 | -117.41010 | 5022 ft | 140 kts | 164° |
| 2026-04-25 19:46 | 33.21328 | -117.40620 | 5024 ft | 140 kts | 165° |
| 2026-04-25 19:46 | 33.20412 | -117.40233 | 5024 ft | 140 kts | 164° |
| 2026-04-25 19:47 | 33.19494 | -117.39846 | 5023 ft | 140 kts | 165° |
| 2026-04-25 19:47 | 33.18579 | -117.39460 | 5022 ft | 139 kts | 165° |
| 2026-04-25 19:47 | 33.17663 | -117.39074 | 5022 ft | 139 kts | 164° |
| 2026-04-25 19:47 | 33.16751 | -117.38689 | 5025 ft | 139 kts | 165° |
| 2026-04-25 19:48 | 33.15840 | -117.38306 | 5026 ft | 139 kts | 164° |
| 2026-04-25 19:48 | 33.14921 | -117.37920 | 5026 ft | 140 kts | 163° |
| 2026-04-25 19:48 | 33.13999 | -117.37532 | 5027 ft | 141 kts | 164° |
| 2026-04-25 19:48 | 33.13072 | -117.37142 | 5030 ft | 142 kts | 163° |
| 2026-04-25 19:49 | 33.12145 | -117.36753 | 5042 ft | 147 kts | 163° |
| 2026-04-25 19:49 | 33.11481 | -117.36475 | 5037 ft | 152 kts | 164° |
| 2026-04-25 19:49 | 33.10137 | -117.35909 | 5037 ft | 157 kts | 163° |
| 2026-04-25 19:49 | 33.09110 | -117.35475 | 5035 ft | 156 kts | 165° |
| 2026-04-25 19:50 | 33.07098 | -117.34631 | 5038 ft | 154 kts | 163° |
| 2026-04-25 19:50 | 33.06083 | -117.34206 | 5030 ft | 155 kts | 163° |
| 2026-04-25 19:50 | 33.05072 | -117.33781 | 5027 ft | 154 kts | 164° |
| 2026-04-25 19:51 | 33.04068 | -117.33359 | 5020 ft | 152 kts | 163° |
| 2026-04-25 19:51 | 33.03080 | -117.32943 | 5020 ft | 149 kts | 163° |
| 2026-04-25 19:51 | 33.02105 | -117.32535 | 5019 ft | 148 kts | 164° |
| 2026-04-25 19:51 | 33.01143 | -117.32132 | 5019 ft | 145 kts | 164° |
| 2026-04-25 19:52 | 33.00204 | -117.31737 | 5022 ft | 142 kts | 163° |
| 2026-04-25 19:52 | 32.99272 | -117.31348 | 5022 ft | 142 kts | 164° |
| 2026-04-25 19:52 | 32.98336 | -117.30956 | 5028 ft | 144 kts | 165° |
| 2026-04-25 19:52 | 32.97386 | -117.30559 | 5034 ft | 146 kts | 164° |
| 2026-04-25 19:53 | 32.96422 | -117.30152 | 5036 ft | 148 kts | 164° |
| 2026-04-25 19:53 | 32.95452 | -117.29746 | 5037 ft | 147 kts | 164° |
| 2026-04-25 19:53 | 32.94488 | -117.29342 | 5033 ft | 146 kts | 164° |
| 2026-04-25 19:53 | 32.93536 | -117.28943 | 5030 ft | 144 kts | 164° |
| 2026-04-25 19:54 | 32.92578 | -117.28544 | 4940 ft | 150 kts | 163° |
| 2026-04-25 19:54 | 32.91590 | -117.28129 | 4827 ft | 155 kts | 162° |
| 2026-04-25 19:54 | 32.90717 | -117.27356 | 4674 ft | 163 kts | 128° |
| 2026-04-25 19:54 | 32.90321 | -117.26569 | 4590 ft | 165 kts | 122° |
| 2026-04-25 19:55 | 32.89570 | -117.25016 | 4419 ft | 162 kts | 122° |
| 2026-04-25 19:55 | 32.89005 | -117.23865 | 4291 ft | 161 kts | 122° |
| 2026-04-25 19:55 | 32.88441 | -117.22720 | 4163 ft | 160 kts | 122° |
| 2026-04-25 19:55 | 32.87877 | -117.21571 | 4033 ft | 161 kts | 122° |
| 2026-04-25 19:56 | 32.87323 | -117.20428 | 3902 ft | 158 kts | 122° |
| 2026-04-25 19:56 | 32.86776 | -117.19296 | 3775 ft | 157 kts | 122° |
| 2026-04-25 19:56 | 32.86232 | -117.18176 | 3637 ft | 156 kts | 122° |
| 2026-04-25 19:56 | 32.85693 | -117.17059 | 3505 ft | 155 kts | 124° |
| 2026-04-25 19:57 | 32.85202 | -117.15942 | 3499 ft | 150 kts | 122° |
| 2026-04-25 19:57 | 32.84681 | -117.14921 | 3465 ft | 134 kts | 139° |
| 2026-04-25 19:57 | 32.83922 | -117.14379 | 3331 ft | 127 kts | 166° |
| 2026-04-25 19:57 | 32.83081 | -117.14108 | 3282 ft | 122 kts | 173° |
| 2026-04-25 19:58 | 32.82258 | -117.13897 | 3314 ft | 123 kts | 170° |
| 2026-04-25 19:58 | 32.81400 | -117.13705 | 3330 ft | 129 kts | 174° |
| 2026-04-25 19:58 | 32.80495 | -117.13580 | 3338 ft | 130 kts | 181° |
| 2026-04-25 19:58 | 32.79529 | -117.13559 | 3123 ft | 152 kts | 185° |
| 2026-04-25 19:59 | 32.78428 | -117.13725 | 2641 ft | 163 kts | 193° |
| 2026-04-25 19:59 | 32.77343 | -117.14057 | 2254 ft | 160 kts | 198° |
| 2026-04-25 19:59 | 32.76331 | -117.14425 | 2000 ft | 141 kts | 201° |
| 2026-04-25 19:59 | 32.75455 | -117.14776 | 1757 ft | 128 kts | 205° |
| 2026-04-25 20:00 | 32.74631 | -117.15177 | 1308 ft | 125 kts | 207° |
| 2026-04-25 20:00 | 32.74383 | -117.15326 | 1198 ft | 122 kts | 210° |
| 2026-04-25 20:00 | 32.73230 | -117.16352 | 704 ft | 111 kts | 232° |
| 2026-04-25 20:00 | 32.72992 | -117.16983 | 428 ft | 68 kts | 257° |
| 2026-04-25 20:01 | 32.73110 | -117.17972 | 14 ft | 49 kts | 283° |
| 2026-04-25 20:01 | 32.73204 | -117.18185 | 18 ft | 17 kts | 339° |
| 2026-04-25 20:01 | 32.73256 | -117.18179 | 18 ft | 0 kts | 47° |
| 2026-04-25 20:02 | 32.73268 | -117.18161 | 15 ft | 13 kts | 55° |
| 2026-04-25 20:03 | 32.73296 | -117.18247 | 15 ft | 1 kts | 98° |
| 2026-04-25 20:03 | 32.73267 | -117.18123 | 15 ft | 33 kts | 107° |
| 2026-04-25 20:04 | 32.73377 | -117.17953 | 15 ft | 45 kts | 16° |
| 2026-04-25 20:04 | 32.73444 | -117.17907 | 15 ft | 0 kts | 82° |